Time;durP1;ratioP1;P1;durP2;ratioP2;P2;SDS_P1;SDS_P2;PMS_P1;PMS_P2;Temp;Humidity;BMP_temperature;BMP_pressure;BME280_temperature;BME280_humidity;BME280_pressure;Samples;Min_cycle;Max_cycle;Signal;HPM_P1;HPM_P2
2022/08/13 00:01:39;;;;;;;4.15;2.50;;;;;;;;;;5055533;28;20033;-59
2022/08/13 00:04:06;;;;;;;3.05;2.15;;;;;;;;;;5055826;28;20029;-61
2022/08/13 00:09:05;;;;;;;3.17;2.85;;;;;;;;;;5055428;28;20025;-61
2022/08/13 00:14:17;;;;;;;3.35;2.90;;;;;;;;;;5055689;28;20035;-58
2022/08/13 00:16:42;;;;;;;3.85;3.38;;;;;;;;;;5055294;28;20029;-61
2022/08/13 00:19:08;;;;;;;3.35;3.00;;;;;;;;;;5055389;28;20021;-61
2022/08/13 00:21:34;;;;;;;6.10;3.10;;;;;;;;;;5037331;28;20025;-61
2022/08/13 00:23:59;;;;;;;4.05;3.65;;;;;;;;;;5055172;28;20020;-62
2022/08/13 00:26:26;;;;;;;5.65;3.85;;;;;;;;;;5055118;28;20476;-59
2022/08/13 00:28:55;;;;;;;5.13;3.88;;;;;;;;;;5055049;28;20441;-46
2022/08/13 00:31:24;;;;;;;6.13;3.13;;;;;;;;;;5055007;28;20029;-44
2022/08/13 00:33:50;;;;;;;7.55;2.47;;;;;;;;;;5054641;28;20481;-45
2022/08/13 00:36:17;;;;;;;6.20;4.55;;;;;;;;;;5055163;28;20045;-44
2022/08/13 00:38:44;;;;;;;8.48;4.72;;;;;;;;;;5054743;28;20032;-50
2022/08/13 00:41:37;;;;;;;5.63;4.75;;;;;;;;;;5055124;28;20029;-44
2022/08/13 00:43:57;;;;;;;4.30;2.85;;;;;;;;;;5054620;28;20079;-45
2022/08/13 00:46:24;;;;;;;7.38;2.50;;;;;;;;;;5054740;28;20028;-44
2022/08/13 00:48:50;;;;;;;4.82;4.00;;;;;;;;;;5053871;28;20476;-48
2022/08/13 00:51:16;;;;;;;6.65;4.82;;;;;;;;;;5054934;28;20033;-49
2022/08/13 00:53:46;;;;;;;3.75;3.00;;;;;;;;;;5054803;28;20052;-44
2022/08/13 00:56:12;;;;;;;4.25;3.25;;;;;;;;;;5054543;28;20021;-47
2022/08/13 00:58:40;;;;;;;6.82;3.20;;;;;;;;;;5054660;28;20033;-49
2022/08/13 01:01:07;;;;;;;6.20;4.05;;;;;;;;;;5054309;28;20029;-46
2022/08/13 01:03:36;;;;;;;4.15;3.20;;;;;;;;;;5054356;28;20500;-48
2022/08/13 01:06:04;;;;;;;5.82;4.75;;;;;;;;;;5054602;28;20029;-45
2022/08/13 01:08:32;;;;;;;4.90;3.17;;;;;;;;;;5054447;28;20094;-50
2022/08/13 01:11:06;;;;;;;6.88;5.45;;;;;;;;;;5054391;28;20024;-47
2022/08/13 01:13:36;;;;;;;7.90;5.25;;;;;;;;;;5054152;28;20032;-50
2022/08/13 01:16:07;;;;;;;4.10;3.42;;;;;;;;;;5054211;28;20031;-51
2022/08/13 01:18:36;;;;;;;6.40;3.83;;;;;;;;;;5054081;28;20036;-48
2022/08/13 01:21:14;;;;;;;6.60;5.15;;;;;;;;;;5054391;28;20021;-47
2022/08/13 01:23:43;;;;;;;7.75;5.65;;;;;;;;;;5036680;28;20025;-46
2022/08/13 01:26:10;;;;;;;9.10;5.40;;;;;;;;;;5054208;28;20091;-47
2022/08/13 01:28:38;;;;;;;3.70;3.38;;;;;;;;;;5053880;28;20536;-61
2022/08/13 01:31:05;;;;;;;3.42;3.13;;;;;;;;;;5054076;28;20044;-46
2022/08/13 01:33:34;;;;;;;7.20;3.70;;;;;;;;;;5053760;28;20489;-50
2022/08/13 01:36:01;;;;;;;7.78;6.40;;;;;;;;;;5053765;28;20029;-51
2022/08/13 01:38:27;;;;;;;8.00;3.85;;;;;;;;;;5053994;28;20451;-46
2022/08/13 01:40:52;;;;;;;4.95;4.45;;;;;;;;;;5035798;28;20108;-46
2022/08/13 01:43:18;;;;;;;7.60;5.25;;;;;;;;;;5054219;28;20021;-54
2022/08/13 01:45:44;;;;;;;6.13;4.38;;;;;;;;;;5053659;28;20362;-54
2022/08/13 01:50:54;;;;;;;7.40;6.15;;;;;;;;;;5053999;28;20067;-56
2022/08/13 01:53:20;;;;;;;6.35;5.18;;;;;;;;;;5053736;28;20052;-52
2022/08/13 01:55:52;;;;;;;5.82;5.22;;;;;;;;;;5053663;28;20021;-58
2022/08/13 01:58:22;;;;;;;8.02;6.72;;;;;;;;;;5053647;28;20051;-61
2022/08/13 02:00:51;;;;;;;5.75;4.72;;;;;;;;;;5052502;28;20073;-61
2022/08/13 02:03:19;;;;;;;6.55;4.63;;;;;;;;;;5053273;28;20025;-61
2022/08/13 02:05:47;;;;;;;10.02;6.22;;;;;;;;;;5053157;28;20111;-62
2022/08/13 02:08:14;;;;;;;10.20;6.00;;;;;;;;;;5053218;28;20029;-61
2022/08/13 02:10:42;;;;;;;6.20;4.75;;;;;;;;;;5053327;28;20025;-62
2022/08/13 02:13:11;;;;;;;5.72;4.53;;;;;;;;;;5053293;28;20025;-61
2022/08/13 02:15:38;;;;;;;6.45;4.55;;;;;;;;;;5053053;28;20025;-61
2022/08/13 02:18:04;;;;;;;5.80;4.15;;;;;;;;;;5052935;28;20108;-61
2022/08/13 02:20:36;;;;;;;8.75;3.53;;;;;;;;;;5053242;28;20025;-60
2022/08/13 02:23:05;;;;;;;3.67;2.92;;;;;;;;;;5052954;28;20385;-62
2022/08/13 02:25:32;;;;;;;7.45;5.05;;;;;;;;;;5052835;28;20029;-61
2022/08/13 02:27:58;;;;;;;6.57;5.10;;;;;;;;;;5053109;28;20036;-45
2022/08/13 02:30:26;;;;;;;10.07;4.28;;;;;;;;;;5053025;28;20365;-46
2022/08/13 02:32:52;;;;;;;6.30;4.90;;;;;;;;;;5052711;28;20044;-46
2022/08/13 02:35:18;;;;;;;8.10;6.82;;;;;;;;;;5052590;28;20495;-49
2022/08/13 02:37:44;;;;;;;6.55;4.60;;;;;;;;;;5052865;28;20033;-52
2022/08/13 02:42:58;;;;;;;11.82;8.45;;;;;;;;;;5052930;28;20040;-49
2022/08/13 02:45:24;;;;;;;4.72;4.25;;;;;;;;;;5052733;28;20035;-52
2022/08/13 02:47:51;;;;;;;8.00;5.65;;;;;;;;;;5052510;28;20017;-56
2022/08/13 02:50:20;;;;;;;10.75;7.55;;;;;;;;;;5052371;28;20057;-47
2022/08/13 02:52:51;;;;;;;7.07;5.60;;;;;;;;;;5052412;28;20031;-48
2022/08/13 02:55:19;;;;;;;7.45;6.60;;;;;;;;;;5052358;28;20465;-44
2022/08/13 02:57:46;;;;;;;12.00;5.57;;;;;;;;;;5034651;28;20542;-44
2022/08/13 03:00:12;;;;;;;7.93;6.28;;;;;;;;;;5052317;28;20568;-56
2022/08/13 03:02:42;;;;;;;13.43;7.35;;;;;;;;;;5052670;28;20064;-57
2022/08/13 03:05:09;;;;;;;6.37;5.17;;;;;;;;;;5052312;28;20017;-62
2022/08/13 03:07:37;;;;;;;6.63;4.78;;;;;;;;;;5052473;28;20029;-59
2022/08/13 03:10:04;;;;;;;5.60;4.50;;;;;;;;;;5052204;28;20037;-62
2022/08/13 03:12:32;;;;;;;11.30;9.93;;;;;;;;;;5052035;28;20393;-61
2022/08/13 03:14:59;;;;;;;10.23;7.55;;;;;;;;;;5052444;28;20460;-60
2022/08/13 03:17:24;;;;;;;8.23;7.25;;;;;;;;;;5052442;28;20381;-61
2022/08/13 03:19:51;;;;;;;7.75;5.43;;;;;;;;;;5052145;28;20036;-62
2022/08/13 03:22:17;;;;;;;6.25;4.70;;;;;;;;;;5052392;28;20025;-48
2022/08/13 03:24:43;;;;;;;10.93;8.30;;;;;;;;;;5052377;28;20025;-48
2022/08/13 03:27:10;;;;;;;12.52;7.50;;;;;;;;;;5052339;28;20476;-46
2022/08/13 03:29:38;;;;;;;9.82;8.50;;;;;;;;;;5052317;28;20025;-52
2022/08/13 03:32:04;;;;;;;14.25;5.30;;;;;;;;;;5051782;28;20032;-54
2022/08/13 03:34:29;;;;;;;5.85;4.93;;;;;;;;;;5052332;28;20025;-50
2022/08/13 03:36:54;;;;;;;8.18;7.28;;;;;;;;;;5052237;28;20025;-49
2022/08/13 03:39:20;;;;;;;8.57;7.32;;;;;;;;;;5052246;28;20025;-52
2022/08/13 03:41:45;;;;;;;8.25;6.65;;;;;;;;;;5051874;28;20083;-47
2022/08/13 03:44:11;;;;;;;5.53;4.40;;;;;;;;;;5051969;28;20021;-46
2022/08/13 03:46:37;;;;;;;6.15;5.45;;;;;;;;;;5051864;28;20037;-54
2022/08/13 03:49:02;;;;;;;5.57;4.10;;;;;;;;;;5051907;28;20112;-61
2022/08/13 03:51:28;;;;;;;5.70;4.22;;;;;;;;;;5052124;28;20059;-58
2022/08/13 03:53:54;;;;;;;8.50;6.28;;;;;;;;;;5051893;28;20070;-60
2022/08/13 03:56:22;;;;;;;14.40;8.32;;;;;;;;;;5051826;28;20037;-59
2022/08/13 03:58:49;;;;;;;10.15;8.05;;;;;;;;;;5051953;28;20082;-62
2022/08/13 04:01:17;;;;;;;10.05;7.82;;;;;;;;;;5051844;28;20112;-62
2022/08/13 04:03:43;;;;;;;16.25;8.13;;;;;;;;;;5052019;28;20033;-46
2022/08/13 04:06:16;;;;;;;11.57;7.95;;;;;;;;;;5051758;28;20071;-55
2022/08/13 04:08:44;;;;;;;9.85;7.50;;;;;;;;;;5052042;28;20021;-47
2022/08/13 04:11:17;;;;;;;11.15;8.60;;;;;;;;;;5051947;28;20082;-57
2022/08/13 04:13:43;;;;;;;12.15;8.23;;;;;;;;;;5051745;28;20021;-55
2022/08/13 04:16:20;;;;;;;14.20;7.78;;;;;;;;;;5051886;28;20023;-53
2022/08/13 04:18:47;;;;;;;11.52;8.35;;;;;;;;;;5051626;28;20029;-56
2022/08/13 04:21:15;;;;;;;10.57;7.93;;;;;;;;;;5051591;28;20115;-49
2022/08/13 04:23:41;;;;;;;13.75;8.25;;;;;;;;;;5052070;28;20028;-46
2022/08/13 04:26:09;;;;;;;14.20;7.78;;;;;;;;;;5055385;28;20482;-51
2022/08/13 04:28:38;;;;;;;14.48;7.45;;;;;;;;;;5055382;28;20116;-58
2022/08/13 04:31:05;;;;;;;10.07;8.03;;;;;;;;;;5055505;28;20031;-56
2022/08/13 04:33:31;;;;;;;12.90;7.88;;;;;;;;;;5037235;28;20100;-47
2022/08/13 04:35:57;;;;;;;10.60;7.55;;;;;;;;;;5055169;28;20029;-47
2022/08/13 04:38:23;;;;;;;10.77;8.00;;;;;;;;;;5055094;28;20495;-49
2022/08/13 04:40:51;;;;;;;15.30;8.68;;;;;;;;;;5054806;28;20079;-46
2022/08/13 04:43:16;;;;;;;9.43;7.28;;;;;;;;;;5054875;28;20396;-46
2022/08/13 04:45:42;;;;;;;8.52;7.55;;;;;;;;;;5054963;28;20021;-45
2022/08/13 04:48:12;;;;;;;10.10;7.60;;;;;;;;;;5054940;28;20431;-63
2022/08/13 04:50:39;;;;;;;9.77;7.53;;;;;;;;;;5054962;28;20021;-59
2022/08/13 04:53:19;;;;;;;14.05;7.65;;;;;;;;;;5054726;28;20028;-52
2022/08/13 04:55:45;;;;;;;;;;;;;;;;;;5055104;28;20025;-54
2022/08/13 04:58:10;;;;;;;9.50;7.55;;;;;;;;;;5054746;28;20376;-47
2022/08/13 05:00:36;;;;;;;8.90;7.57;;;;;;;;;;5054711;28;20059;-44
2022/08/13 05:03:13;;;;;;;8.73;7.28;;;;;;;;;;5054478;28;20035;-51
2022/08/13 05:05:40;;;;;;;9.73;7.15;;;;;;;;;;5054650;28;20111;-46
2022/08/13 05:08:07;;;;;;;8.63;6.93;;;;;;;;;;5054363;28;20044;-51
2022/08/13 05:10:38;;;;;;;13.07;6.50;;;;;;;;;;5054563;28;20024;-50
2022/08/13 05:13:25;;;;;;;10.77;6.88;;;;;;;;;;5054343;28;20103;-45
2022/08/13 05:15:52;;;;;;;8.00;6.20;;;;;;;;;;5041236;28;20037;-47
2022/08/13 05:18:18;;;;;;;8.55;6.40;;;;;;;;;;5054345;28;20379;-44
2022/08/13 05:20:44;;;;;;;9.52;6.60;;;;;;;;;;5054140;28;20103;-54
2022/08/13 05:23:11;;;;;;;7.03;6.18;;;;;;;;;;5054252;28;20091;-45
2022/08/13 05:25:36;;;;;;;8.57;6.35;;;;;;;;;;5053971;28;20032;-51
2022/08/13 05:28:03;;;;;;;9.00;6.38;;;;;;;;;;5054173;28;20082;-49
2022/08/13 05:30:28;;;;;;;8.30;6.63;;;;;;;;;;5053985;28;20092;-55
2022/08/13 05:32:57;;;;;;;9.98;7.15;;;;;;;;;;5053668;28;20076;-51
2022/08/13 05:35:25;;;;;;;12.37;7.00;;;;;;;;;;5053506;28;20029;-46
2022/08/13 05:37:51;;;;;;;7.35;6.30;;;;;;;;;;5054085;28;20076;-47
2022/08/13 05:40:17;;;;;;;7.50;6.03;;;;;;;;;;5053723;28;20036;-45
2022/08/13 05:42:43;;;;;;;7.13;6.20;;;;;;;;;;5053614;28;20029;-45
2022/08/13 05:45:09;;;;;;;9.30;6.93;;;;;;;;;;5053702;28;20021;-61
2022/08/13 05:47:38;;;;;;;8.35;6.32;;;;;;;;;;5053535;28;20047;-53
2022/08/13 05:50:13;;;;;;;8.13;7.15;;;;;;;;;;5053803;28;20025;-47
2022/08/13 05:52:39;;;;;;;9.45;6.78;;;;;;;;;;5053564;28;20037;-46
2022/08/13 05:55:06;;;;;;;9.20;7.40;;;;;;;;;;5053781;28;20040;-50
2022/08/13 05:57:32;;;;;;;8.73;6.80;;;;;;;;;;5053671;28;20048;-46
2022/08/13 06:05:26;;;;;;;7.93;7.13;;;;;;;;;;5053411;28;20032;-46
2022/08/13 06:07:52;;;;;;;9.63;7.93;;;;;;;;;;5053442;28;20032;-44
2022/08/13 06:10:19;;;;;;;11.35;7.10;;;;;;;;;;5053447;28;20063;-48
2022/08/13 06:12:45;;;;;;;9.38;7.40;;;;;;;;;;5053386;28;20116;-44
2022/08/13 06:15:11;;;;;;;9.15;7.70;;;;;;;;;;5053052;28;20458;-44
2022/08/13 06:17:38;;;;;;;10.38;7.50;;;;;;;;;;5053035;28;20018;-46
2022/08/13 06:20:05;;;;;;;10.50;7.60;;;;;;;;;;5035442;28;20037;-45
2022/08/13 06:22:36;;;;;;;8.77;7.25;;;;;;;;;;5052956;28;20109;-46
2022/08/13 06:25:05;;;;;;;8.52;7.25;;;;;;;;;;5052877;28;20040;-46
2022/08/13 06:27:32;;;;;;;13.45;7.95;;;;;;;;;;5051897;28;20461;-51
2022/08/13 06:29:58;;;;;;;7.85;6.55;;;;;;;;;;5052958;28;20021;-46
2022/08/13 06:32:24;;;;;;;13.73;7.38;;;;;;;;;;5051829;28;20037;-45
2022/08/13 06:34:51;;;;;;;9.60;7.35;;;;;;;;;;5052928;28;20037;-55
2022/08/13 06:37:17;;;;;;;10.00;7.75;;;;;;;;;;5052821;28;20100;-50
2022/08/13 06:39:44;;;;;;;8.07;6.97;;;;;;;;;;5052691;28;20431;-45
2022/08/13 06:42:11;;;;;;;11.60;9.02;;;;;;;;;;5052195;28;20495;-48
2022/08/13 06:44:44;;;;;;;9.48;6.63;;;;;;;;;;5034541;28;20029;-49
2022/08/13 06:47:10;;;;;;;10.52;7.82;;;;;;;;;;5051473;28;20032;-58
2022/08/13 06:49:35;;;;;;;11.27;7.00;;;;;;;;;;5051541;28;20021;-51
2022/08/13 06:52:01;;;;;;;13.40;7.38;;;;;;;;;;5050973;28;20025;-48
2022/08/13 06:54:27;;;;;;;9.45;6.82;;;;;;;;;;5048779;28;20017;-57
2022/08/13 06:56:58;;;;;;;8.52;7.30;;;;;;;;;;5051572;28;20381;-46
2022/08/13 06:59:24;;;;;;;10.07;7.38;;;;;;;;;;5052334;28;20485;-48
2022/08/13 07:01:57;;;;;;;7.53;6.72;;;;;;;;;;5052136;28;20048;-54
2022/08/13 07:04:23;;;;;;;9.02;7.18;;;;;;;;;;5052592;28;20025;-58
2022/08/13 07:06:50;;;;;;;12.10;8.70;;;;;;;;;;5052302;28;20047;-52
2022/08/13 07:09:19;;;;;;;8.60;6.57;;;;;;;;;;5033863;28;20357;-52
2022/08/13 07:11:45;;;;;;;11.73;8.10;;;;;;;;;;5051653;28;20067;-58
2022/08/13 07:14:13;;;;;;;9.68;7.63;;;;;;;;;;5052145;28;20033;-47
2022/08/13 07:16:40;;;;;;;9.35;7.75;;;;;;;;;;5052450;28;20029;-49
2022/08/13 07:19:07;;;;;;;8.20;7.40;;;;;;;;;;5052081;28;20076;-52
2022/08/13 07:21:33;;;;;;;11.43;6.82;;;;;;;;;;5051957;28;20032;-52
2022/08/13 07:24:04;;;;;;;14.07;7.60;;;;;;;;;;5051884;28;20384;-53
2022/08/13 07:26:33;;;;;;;10.40;7.13;;;;;;;;;;5052176;28;20507;-55
2022/08/13 07:29:00;;;;;;;10.32;7.28;;;;;;;;;;5052133;28;20402;-55
2022/08/13 07:31:31;;;;;;;10.57;7.40;;;;;;;;;;5052010;28;20116;-55
2022/08/13 07:33:59;;;;;;;10.85;7.10;;;;;;;;;;5051276;28;20055;-47
2022/08/13 07:36:29;;;;;;;7.95;6.75;;;;;;;;;;5051924;28;20029;-51
2022/08/13 07:38:56;;;;;;;12.40;7.47;;;;;;;;;;5050920;28;20119;-46
2022/08/13 07:41:24;;;;;;;8.85;6.35;;;;;;;;;;5049775;28;20041;-52
2022/08/13 07:43:50;;;;;;;12.70;7.72;;;;;;;;;;5048562;28;20032;-43
2022/08/13 07:46:17;;;;;;;10.35;7.10;;;;;;;;;;5050482;28;20029;-47
2022/08/13 07:48:52;;;;;;;10.43;7.38;;;;;;;;;;5051916;28;20534;-52
2022/08/13 07:51:20;;;;;;;7.82;6.57;;;;;;;;;;5051383;28;20032;-52
2022/08/13 07:53:50;;;;;;;10.35;6.63;;;;;;;;;;5051644;28;20033;-48
2022/08/13 07:56:29;;;;;;;7.88;6.18;;;;;;;;;;5051824;28;20033;-50
2022/08/13 07:59:00;;;;;;;7.75;6.72;;;;;;;;;;5054117;28;20029;-47
2022/08/13 08:01:27;;;;;;;8.93;7.68;;;;;;;;;;5055148;28;20087;-44
2022/08/13 08:03:56;;;;;;;14.63;7.40;;;;;;;;;;5055405;28;20078;-49
2022/08/13 08:06:22;;;;;;;9.63;7.05;;;;;;;;;;5055849;28;20025;-47
2022/08/13 08:08:53;;;;;;;10.25;7.45;;;;;;;;;;5055565;28;20136;-57
2022/08/13 08:14:04;;;;;;;8.65;6.55;;;;;;;;;;5055686;28;20059;-44
2022/08/13 08:16:34;;;;;;;9.93;7.22;;;;;;;;;;5055483;28;20029;-53
2022/08/13 08:19:00;;;;;;;9.57;6.80;;;;;;;;;;5055397;28;20738;-45
2022/08/13 08:21:26;;;;;;;8.57;7.25;;;;;;;;;;5055579;28;20057;-45
2022/08/13 08:23:59;;;;;;;9.35;7.10;;;;;;;;;;5055466;28;20036;-49
2022/08/13 08:26:29;;;;;;;9.13;6.97;;;;;;;;;;5055074;28;20120;-44
2022/08/13 08:28:56;;;;;;;11.68;7.18;;;;;;;;;;5054504;28;20112;-42
2022/08/13 08:31:23;;;;;;;8.65;7.05;;;;;;;;;;5054548;28;20017;-56
2022/08/13 08:33:50;;;;;;;7.88;6.75;;;;;;;;;;5054488;28;20488;-56
2022/08/13 08:36:15;;;;;;;10.82;7.68;;;;;;;;;;5054733;28;20048;-45
2022/08/13 08:44:27;;;;;;;10.63;7.68;;;;;;;;;;5055215;28;20035;-55
2022/08/13 08:46:59;;;;;;;9.85;7.32;;;;;;;;;;5054915;28;20025;-49
2022/08/13 08:49:25;;;;;;;8.93;7.00;;;;;;;;;;5054727;28;20025;-55
2022/08/13 08:51:52;;;;;;;10.85;7.00;;;;;;;;;;5054706;28;20100;-49
2022/08/13 08:54:22;;;;;;;8.93;7.65;;;;;;;;;;5054490;28;20032;-53
2022/08/13 08:56:54;;;;;;;9.95;7.40;;;;;;;;;;5053906;28;20083;-44
2022/08/13 08:59:23;;;;;;;7.65;6.82;;;;;;;;;;5054178;28;20083;-44
2022/08/13 09:01:55;;;;;;;8.57;7.20;;;;;;;;;;5051465;28;20021;-48
2022/08/13 09:04:22;;;;;;;8.15;7.10;;;;;;;;;;5054047;28;20025;-54
2022/08/13 09:06:52;;;;;;;8.00;7.07;;;;;;;;;;5052269;28;20037;-57
2022/08/13 09:09:19;;;;;;;11.88;6.97;;;;;;;;;;5050431;28;20032;-56
2022/08/13 09:11:48;;;;;;;8.43;7.22;;;;;;;;;;5052407;28;20485;-53
2022/08/13 09:14:14;;;;;;;13.27;7.67;;;;;;;;;;5052852;28;20041;-49
2022/08/13 09:16:40;;;;;;;9.77;7.07;;;;;;;;;;5052046;28;20139;-51
2022/08/13 09:19:08;;;;;;;8.63;6.97;;;;;;;;;;5052273;28;20063;-49
2022/08/13 09:21:58;;;;;;;8.38;6.72;;;;;;;;;;5050744;28;20103;-44
2022/08/13 09:24:24;;;;;;;10.85;7.10;;;;;;;;;;5051047;28;20045;-57
2022/08/13 09:26:51;;;;;;;11.90;7.40;;;;;;;;;;5050951;28;20045;-56
2022/08/13 09:29:19;;;;;;;8.18;7.22;;;;;;;;;;5051105;28;20071;-46
2022/08/13 09:31:48;;;;;;;9.40;7.33;;;;;;;;;;5050672;28;20815;-44
2022/08/13 09:34:14;;;;;;;8.15;7.35;;;;;;;;;;5050723;28;20489;-50
2022/08/13 09:36:41;;;;;;;8.02;7.13;;;;;;;;;;5053503;28;20041;-56
2022/08/13 09:39:07;;;;;;;9.13;6.80;;;;;;;;;;5060398;28;20148;-49
2022/08/13 09:41:41;;;;;;;6.72;6.13;;;;;;;;;;5048678;28;20033;-56
2022/08/13 09:44:06;;;;;;;7.70;6.38;;;;;;;;;;5051870;28;20025;-56
2022/08/13 09:46:34;;;;;;;8.18;6.78;;;;;;;;;;5051272;28;20492;-52
2022/08/13 09:49:00;;;;;;;7.03;6.38;;;;;;;;;;5051282;28;20033;-47
2022/08/13 09:51:35;;;;;;;7.18;6.53;;;;;;;;;;5052194;28;20432;-56
2022/08/13 09:54:05;;;;;;;7.15;6.30;;;;;;;;;;5051843;28;20116;-44
2022/08/13 09:56:37;;;;;;;7.80;6.82;;;;;;;;;;5051911;28;20096;-47
2022/08/13 09:59:06;;;;;;;8.82;6.80;;;;;;;;;;5051929;28;20056;-54
2022/08/13 10:01:34;;;;;;;;;;;;;;;;;;5052053;28;20041;-52
2022/08/13 10:04:00;;;;;;;9.75;6.72;;;;;;;;;;5051585;28;19924;-51
2022/08/13 10:06:28;;;;;;;8.88;6.05;;;;;;;;;;5051538;28;20567;-58
2022/08/13 10:08:59;;;;;;;7.90;6.67;;;;;;;;;;5048874;28;20040;-52
2022/08/13 10:11:24;;;;;;;11.32;6.32;;;;;;;;;;5051720;28;20677;-53
2022/08/13 10:13:50;;;;;;;8.93;6.45;;;;;;;;;;5050750;28;20024;-55
2022/08/13 10:16:15;;;;;;;9.30;6.38;;;;;;;;;;5051072;28;20087;-56
2022/08/13 10:18:41;;;;;;;6.68;6.05;;;;;;;;;;5051115;28;20111;-47
2022/08/13 10:21:08;;;;;;;11.35;6.35;;;;;;;;;;5050577;28;20024;-55
2022/08/13 10:23:35;;;;;;;7.07;6.07;;;;;;;;;;5050901;28;20434;-57
2022/08/13 10:26:01;;;;;;;6.50;5.85;;;;;;;;;;5050204;28;20020;-49
2022/08/13 10:28:33;;;;;;;6.78;5.57;;;;;;;;;;5049871;28;20094;-46
2022/08/13 10:31:02;;;;;;;6.63;5.90;;;;;;;;;;5049254;28;20044;-48
2022/08/13 10:33:28;;;;;;;15.73;5.78;;;;;;;;;;5049040;28;20116;-42
2022/08/13 10:35:55;;;;;;;6.07;5.55;;;;;;;;;;5050122;28;20572;-42
2022/08/13 10:38:26;;;;;;;7.85;5.93;;;;;;;;;;5053514;28;20036;-49
2022/08/13 10:40:54;;;;;;;7.93;5.53;;;;;;;;;;5049611;28;20132;-43
2022/08/13 10:43:21;;;;;;;11.48;5.43;;;;;;;;;;5054817;28;20112;-45
2022/08/13 10:45:47;;;;;;;7.68;5.45;;;;;;;;;;5059198;28;20037;-42
2022/08/13 10:48:13;;;;;;;8.18;5.45;;;;;;;;;;5047668;28;20020;-43
2022/08/13 10:50:40;;;;;;;7.85;5.75;;;;;;;;;;5050518;28;20016;-48
2022/08/13 10:53:06;;;;;;;6.05;5.45;;;;;;;;;;5050578;28;20029;-42
2022/08/13 10:55:33;;;;;;;7.45;5.90;;;;;;;;;;5050893;28;20075;-46
2022/08/13 10:57:58;;;;;;;6.03;5.22;;;;;;;;;;5050652;28;20087;-58
2022/08/13 11:00:24;;;;;;;7.45;5.72;;;;;;;;;;5050560;28;20028;-56
2022/08/13 11:02:50;;;;;;;7.72;5.13;;;;;;;;;;5050596;28;20033;-55
2022/08/13 11:05:20;;;;;;;8.40;5.43;;;;;;;;;;5050825;28;20075;-54
2022/08/13 11:07:45;;;;;;;8.50;5.38;;;;;;;;;;5050915;28;20074;-57
2022/08/13 11:10:12;;;;;;;6.55;4.97;;;;;;;;;;5050674;28;20646;-55
2022/08/13 11:12:38;;;;;;;10.70;5.40;;;;;;;;;;5050214;28;20025;-42
2022/08/13 11:15:07;;;;;;;6.22;5.40;;;;;;;;;;5050097;28;20025;-44
2022/08/13 11:17:33;;;;;;;;;;;;;;;;;;5050725;28;20049;-49
2022/08/13 11:20:06;;;;;;;6.22;5.60;;;;;;;;;;5050412;28;19959;-42
2022/08/13 11:22:32;;;;;;;11.80;5.55;;;;;;;;;;5050505;28;20029;-54
2022/08/13 11:25:00;;;;;;;8.57;5.40;;;;;;;;;;5050710;28;20423;-57
2022/08/13 11:27:26;;;;;;;6.10;5.40;;;;;;;;;;5050486;28;20060;-43
2022/08/13 11:29:54;;;;;;;6.90;5.35;;;;;;;;;;5050125;28;20068;-43
2022/08/13 11:32:20;;;;;;;8.37;5.47;;;;;;;;;;5049801;28;20082;-45
2022/08/13 11:34:46;;;;;;;6.07;5.57;;;;;;;;;;5053664;28;20126;-44
2022/08/13 11:37:11;;;;;;;10.70;5.68;;;;;;;;;;5054285;28;20108;-44
2022/08/13 11:39:37;;;;;;;6.75;5.13;;;;;;;;;;5054313;28;20031;-45
2022/08/13 11:42:03;;;;;;;9.63;4.95;;;;;;;;;;5054349;28;20025;-44
2022/08/13 11:44:29;;;;;;;9.40;5.20;;;;;;;;;;5054619;28;20029;-46
2022/08/13 11:46:54;;;;;;;10.50;5.30;;;;;;;;;;5054317;28;20392;-46
2022/08/13 11:49:21;;;;;;;5.78;5.18;;;;;;;;;;5054359;28;20032;-45
2022/08/13 11:51:48;;;;;;;5.97;4.80;;;;;;;;;;5054045;28;20136;-57
2022/08/13 11:54:14;;;;;;;5.50;4.97;;;;;;;;;;5054412;28;20048;-56
2022/08/13 11:56:39;;;;;;;6.55;5.15;;;;;;;;;;5054364;28;20056;-45
2022/08/13 11:59:05;;;;;;;6.50;5.05;;;;;;;;;;5054223;28;20566;-44
2022/08/13 12:01:30;;;;;;;8.23;4.70;;;;;;;;;;5053996;28;20530;-47
2022/08/13 12:03:56;;;;;;;5.95;5.15;;;;;;;;;;5053993;28;20040;-46
2022/08/13 12:06:22;;;;;;;12.73;5.68;;;;;;;;;;5053831;28;20052;-45
2022/08/13 12:08:47;;;;;;;10.98;5.60;;;;;;;;;;5053810;28;20025;-42
2022/08/13 12:11:13;;;;;;;8.10;5.30;;;;;;;;;;5053879;28;20056;-43
2022/08/13 12:13:38;;;;;;;6.28;5.03;;;;;;;;;;5054002;28;20025;-44
2022/08/13 12:16:04;;;;;;;8.18;4.72;;;;;;;;;;5053866;28;20056;-44
2022/08/13 12:18:30;;;;;;;5.53;5.03;;;;;;;;;;5053535;28;20025;-45
2022/08/13 12:20:56;;;;;;;6.70;5.57;;;;;;;;;;5053582;28;20525;-53
2022/08/13 12:23:21;;;;;;;7.88;5.10;;;;;;;;;;5053254;28;20473;-49
2022/08/13 12:25:47;;;;;;;11.48;4.78;;;;;;;;;;5053550;28;20035;-45
2022/08/13 12:28:16;;;;;;;10.60;4.93;;;;;;;;;;5053830;28;20017;-46
2022/08/13 12:30:42;;;;;;;12.33;5.00;;;;;;;;;;5053542;28;20047;-46
2022/08/13 12:33:08;;;;;;;9.23;4.85;;;;;;;;;;5053323;28;20310;-56
2022/08/13 12:35:35;;;;;;;7.15;4.82;;;;;;;;;;5053071;28;20087;-57
2022/08/13 12:38:12;;;;;;;8.20;5.22;;;;;;;;;;5053348;28;20029;-42
2022/08/13 12:40:39;;;;;;;5.95;5.35;;;;;;;;;;5053221;28;20032;-56
2022/08/13 12:43:06;;;;;;;15.02;5.90;;;;;;;;;;5053622;28;20099;-45
2022/08/13 12:45:33;;;;;;;16.02;5.97;;;;;;;;;;5051946;28;20025;-42
2022/08/13 12:48:11;;;;;;;10.63;5.47;;;;;;;;;;5053086;28;20753;-57
2022/08/13 12:50:38;;;;;;;7.45;5.30;;;;;;;;;;5053448;28;20108;-49
2022/08/13 12:53:05;;;;;;;12.80;6.13;;;;;;;;;;5053052;28;20083;-52
2022/08/13 12:55:33;;;;;;;22.80;6.28;;;;;;;;;;5052957;28;20499;-54
2022/08/13 12:57:59;;;;;;;20.95;6.10;;;;;;;;;;5053209;28;20610;-50
2022/08/13 13:00:26;;;;;;;9.43;5.40;;;;;;;;;;5052898;28;20060;-54
2022/08/13 13:02:52;;;;;;;8.02;5.28;;;;;;;;;;5053035;28;20029;-50
2022/08/13 13:05:18;;;;;;;7.00;5.18;;;;;;;;;;5053298;28;20040;-45
2022/08/13 13:07:47;;;;;;;10.15;5.50;;;;;;;;;;5052787;28;20400;-56
2022/08/13 13:10:13;;;;;;;13.55;5.22;;;;;;;;;;5052991;28;20040;-56
2022/08/13 13:12:38;;;;;;;9.15;5.13;;;;;;;;;;5052938;28;20028;-47
2022/08/13 13:15:05;;;;;;;9.82;5.38;;;;;;;;;;5052699;28;20426;-49
2022/08/13 13:17:31;;;;;;;9.18;5.30;;;;;;;;;;5052602;28;20029;-51
2022/08/13 13:20:00;;;;;;;9.90;4.85;;;;;;;;;;5052419;28;20076;-51
2022/08/13 13:22:25;;;;;;;7.40;5.20;;;;;;;;;;5052619;28;20025;-54
2022/08/13 13:24:52;;;;;;;6.28;5.40;;;;;;;;;;5052496;28;20027;-55
2022/08/13 13:27:20;;;;;;;6.68;5.47;;;;;;;;;;5052473;28;20036;-54
2022/08/13 13:29:45;;;;;;;6.90;5.20;;;;;;;;;;5052385;28;20485;-55
2022/08/13 13:32:13;;;;;;;10.35;5.32;;;;;;;;;;5052526;28;20025;-43
2022/08/13 13:34:43;;;;;;;11.63;5.70;;;;;;;;;;5052092;28;20044;-46
2022/08/13 13:37:13;;;;;;;6.28;5.68;;;;;;;;;;5052193;28;20383;-41
2022/08/13 13:39:39;;;;;;;8.63;5.75;;;;;;;;;;5053556;28;20052;-45
2022/08/13 13:42:05;;;;;;;9.05;5.53;;;;;;;;;;5053198;28;20118;-41
2022/08/13 13:44:30;;;;;;;6.85;5.60;;;;;;;;;;5035418;28;20112;-43
2022/08/13 13:46:57;;;;;;;6.95;5.65;;;;;;;;;;5053012;28;20036;-42
2022/08/13 13:49:22;;;;;;;8.57;5.47;;;;;;;;;;5052795;28;20033;-47
2022/08/13 13:51:49;;;;;;;6.10;5.45;;;;;;;;;;5052618;28;20091;-41
2022/08/13 13:54:14;;;;;;;8.93;6.00;;;;;;;;;;5053356;28;20024;-53
2022/08/13 13:56:40;;;;;;;11.98;5.80;;;;;;;;;;5053519;28;20104;-56
2022/08/13 13:59:06;;;;;;;10.55;6.15;;;;;;;;;;5056971;28;20025;-54
2022/08/13 14:01:32;;;;;;;8.65;6.22;;;;;;;;;;5052616;28;20464;-55
2022/08/13 14:03:59;;;;;;;6.88;5.68;;;;;;;;;;5053325;28;20468;-56
2022/08/13 14:06:27;;;;;;;7.10;6.00;;;;;;;;;;5035783;28;20045;-44
2022/08/13 14:08:52;;;;;;;7.82;6.38;;;;;;;;;;5053458;28;20036;-56
2022/08/13 14:11:19;;;;;;;7.25;5.50;;;;;;;;;;5053001;28;20104;-57
2022/08/13 14:13:45;;;;;;;7.00;6.28;;;;;;;;;;5053009;28;20025;-57
2022/08/13 14:16:14;;;;;;;11.00;5.70;;;;;;;;;;5053310;28;20099;-42
2022/08/13 14:18:41;;;;;;;9.95;5.43;;;;;;;;;;5052945;28;20021;-46
2022/08/13 14:21:07;;;;;;;7.57;5.75;;;;;;;;;;5052867;28;20021;-42
2022/08/13 14:23:34;;;;;;;7.82;6.10;;;;;;;;;;5052849;28;20583;-46
2022/08/13 14:26:04;;;;;;;7.88;6.40;;;;;;;;;;5052565;28;20024;-43
2022/08/13 14:28:30;;;;;;;;;;;;;;;;;;5053142;28;20496;-45
2022/08/13 14:30:58;;;;;;;6.82;5.43;;;;;;;;;;5052796;28;19913;-50
2022/08/13 14:33:26;;;;;;;9.32;6.00;;;;;;;;;;5052589;28;20068;-45
2022/08/13 14:35:52;;;;;;;6.25;5.45;;;;;;;;;;5052937;28;20061;-47
2022/08/13 14:38:18;;;;;;;7.20;5.47;;;;;;;;;;5034764;28;20500;-52
2022/08/13 14:40:45;;;;;;;8.25;5.68;;;;;;;;;;5052958;28;20025;-45
2022/08/13 14:43:11;;;;;;;12.40;5.28;;;;;;;;;;5052820;28;20029;-45
2022/08/13 14:45:44;;;;;;;8.65;5.50;;;;;;;;;;5052551;28;20028;-47
2022/08/13 14:48:21;;;;;;;11.88;5.70;;;;;;;;;;5052557;28;20083;-56
2022/08/13 14:50:54;;;;;;;11.07;6.88;;;;;;;;;;5052556;28;20021;-48
2022/08/13 14:53:21;;;;;;;10.20;5.75;;;;;;;;;;5051976;28;20028;-48
2022/08/13 14:55:50;;;;;;;6.18;5.20;;;;;;;;;;5051289;28;20040;-56
2022/08/13 14:58:16;;;;;;;10.00;5.53;;;;;;;;;;5050865;28;20078;-57
2022/08/13 15:00:44;;;;;;;9.45;6.32;;;;;;;;;;5052165;28;20112;-57
2022/08/13 15:03:12;;;;;;;8.18;5.70;;;;;;;;;;5051757;28;20056;-50
2022/08/13 15:05:40;;;;;;;7.55;5.90;;;;;;;;;;5052046;28;20032;-57
2022/08/13 15:08:07;;;;;;;7.40;5.90;;;;;;;;;;5051318;28;20033;-56